Terminal Aerodrome Forecast
Issued by NWS Paducah, KY

Home | Current Version | Previous Version | Text Only | Print | Product List | Glossary Off
Versions: 1 2 3 4 5 6 7 8 9 10 11 12 13 14 15 16 17 18 19 20 21 22 23 24 25 26 27 28

000
FTUS43 KPAH 192337
TAFPAH
TAF
KPAH 192337Z 2000/2024 VRB03KT P6SM FEW060 SCT250
     FM201600 23006KT P6SM SCT200
     FM202200 VRB03KT P6SM FEW040 SCT200 PROB30 2022/2024 4SM -TSRA
      BKN040CB=

USA.gov is the U.S. government's official web portal to all federal, state and local government web resources and services.